sensor_id;sensor_type;location;lat;lon;timestamp;P1;durP1;ratioP1;P2;durP2;ratioP2
13568;SDS011;6856;51.460;7.158;2022-08-19T03:47:39;4.37;;;3.80;;
13568;SDS011;6856;51.460;7.158;2022-08-19T03:50:13;6.03;;;4.20;;
13568;SDS011;6856;51.460;7.158;2022-08-19T03:52:48;6.63;;;4.50;;
13568;SDS011;6856;51.460;7.158;2022-08-19T03:55:23;5.80;;;4.67;;
13568;SDS011;6856;51.460;7.158;2022-08-19T03:57:56;5.00;;;4.43;;
13568;SDS011;6856;51.460;7.158;2022-08-19T04:00:30;4.77;;;3.83;;
13568;SDS011;6856;51.460;7.158;2022-08-19T04:03:08;5.10;;;4.20;;
13568;SDS011;6856;51.460;7.158;2022-08-19T04:05:41;5.03;;;4.43;;
13568;SDS011;6856;51.460;7.158;2022-08-19T04:08:15;4.47;;;3.83;;
13568;SDS011;6856;51.460;7.158;2022-08-19T04:10:50;5.20;;;4.67;;
13568;SDS011;6856;51.460;7.158;2022-08-19T04:13:24;5.17;;;4.67;;
13568;SDS011;6856;51.460;7.158;2022-08-19T04:16:00;4.80;;;4.30;;
13568;SDS011;6856;51.460;7.158;2022-08-19T04:18:35;4.73;;;4.23;;
13568;SDS011;6856;51.460;7.158;2022-08-19T04:21:14;6.20;;;4.33;;
13568;SDS011;6856;51.460;7.158;2022-08-19T04:23:52;4.70;;;4.20;;
13568;SDS011;6856;51.460;7.158;2022-08-19T04:26:29;6.20;;;4.20;;
13568;SDS011;6856;51.460;7.158;2022-08-19T04:29:06;6.03;;;4.67;;
13568;SDS011;6856;51.460;7.158;2022-08-19T04:31:43;5.30;;;4.47;;
13568;SDS011;6856;51.460;7.158;2022-08-19T04:34:19;6.37;;;4.43;;
13568;SDS011;6856;51.460;7.158;2022-08-19T04:36:56;5.20;;;4.40;;
13568;SDS011;6856;51.460;7.158;2022-08-19T04:39:31;4.70;;;4.20;;
13568;SDS011;6856;51.460;7.158;2022-08-19T04:42:19;4.93;;;3.77;;
13568;SDS011;6856;51.460;7.158;2022-08-19T04:45:12;5.30;;;4.43;;
13568;SDS011;6856;51.460;7.158;2022-08-19T04:47:47;5.30;;;4.40;;
13568;SDS011;6856;51.460;7.158;2022-08-19T04:50:43;5.20;;;4.30;;
13568;SDS011;6856;51.460;7.158;2022-08-19T04:53:17;5.70;;;4.80;;
13568;SDS011;6856;51.460;7.158;2022-08-19T04:55:51;5.10;;;4.60;;
13568;SDS011;6856;51.460;7.158;2022-08-19T04:58:25;6.27;;;4.87;;
13568;SDS011;6856;51.460;7.158;2022-08-19T05:01:00;7.83;;;5.70;;
13568;SDS011;6856;51.460;7.158;2022-08-19T05:03:34;7.47;;;6.30;;
13568;SDS011;6856;51.460;7.158;2022-08-19T05:06:10;5.37;;;4.87;;
13568;SDS011;6856;51.460;7.158;2022-08-19T05:08:49;5.73;;;5.17;;
13568;SDS011;6856;51.460;7.158;2022-08-19T05:11:29;6.57;;;5.53;;
13568;SDS011;6856;51.460;7.158;2022-08-19T05:14:06;5.50;;;5.00;;
13568;SDS011;6856;51.460;7.158;2022-08-19T05:17:00;7.50;;;6.13;;
13568;SDS011;6856;51.460;7.158;2022-08-19T05:19:53;5.70;;;5.10;;
13568;SDS011;6856;51.460;7.158;2022-08-19T05:22:48;6.53;;;5.83;;
13568;SDS011;6856;51.460;7.158;2022-08-19T05:25:22;6.07;;;5.47;;
13568;SDS011;6856;51.460;7.158;2022-08-19T05:27:57;6.90;;;6.10;;
13568;SDS011;6856;51.460;7.158;2022-08-19T05:30:30;6.40;;;5.80;;
13568;SDS011;6856;51.460;7.158;2022-08-19T05:33:18;7.87;;;6.50;;
13568;SDS011;6856;51.460;7.158;2022-08-19T05:35:53;7.37;;;6.63;;
13568;SDS011;6856;51.460;7.158;2022-08-19T05:38:28;7.30;;;6.50;;
13568;SDS011;6856;51.460;7.158;2022-08-19T05:41:05;8.10;;;7.27;;
13568;SDS011;6856;51.460;7.158;2022-08-19T05:43:42;7.83;;;7.03;;
13568;SDS011;6856;51.460;7.158;2022-08-19T05:46:17;7.50;;;6.80;;
13568;SDS011;6856;51.460;7.158;2022-08-19T05:48:58;7.70;;;6.90;;
13568;SDS011;6856;51.460;7.158;2022-08-19T05:51:32;8.37;;;7.50;;
13568;SDS011;6856;51.460;7.158;2022-08-19T05:54:10;9.57;;;8.40;;
13568;SDS011;6856;51.460;7.158;2022-08-19T05:56:45;8.17;;;7.13;;
13568;SDS011;6856;51.460;7.158;2022-08-19T05:59:20;8.37;;;7.10;;
13568;SDS011;6856;51.460;7.158;2022-08-19T06:01:55;9.20;;;7.50;;
13568;SDS011;6856;51.460;7.158;2022-08-19T06:04:28;8.23;;;7.37;;
13568;SDS011;6856;51.460;7.158;2022-08-19T06:07:02;7.90;;;7.10;;
13568;SDS011;6856;51.460;7.158;2022-08-19T06:09:44;12.87;;;7.10;;
13568;SDS011;6856;51.460;7.158;2022-08-19T06:12:31;7.23;;;6.53;;
13568;SDS011;6856;51.460;7.158;2022-08-19T06:15:07;7.70;;;6.90;;
13568;SDS011;6856;51.460;7.158;2022-08-19T06:17:44;8.63;;;7.50;;
13568;SDS011;6856;51.460;7.158;2022-08-19T06:20:18;7.87;;;7.07;;
13568;SDS011;6856;51.460;7.158;2022-08-19T06:23:12;8.20;;;7.40;;
13568;SDS011;6856;51.460;7.158;2022-08-19T06:25:48;9.53;;;7.63;;
13568;SDS011;6856;51.460;7.158;2022-08-19T06:28:22;10.57;;;7.97;;
13568;SDS011;6856;51.460;7.158;2022-08-19T06:30:56;7.40;;;6.67;;
13568;SDS011;6856;51.460;7.158;2022-08-19T06:33:30;9.67;;;8.23;;
13568;SDS011;6856;51.460;7.158;2022-08-19T06:36:03;8.50;;;7.13;;
13568;SDS011;6856;51.460;7.158;2022-08-19T06:38:37;8.97;;;8.10;;
13568;SDS011;6856;51.460;7.158;2022-08-19T06:41:12;8.70;;;7.40;;
13568;SDS011;6856;51.460;7.158;2022-08-19T06:43:46;11.00;;;8.73;;
13568;SDS011;6856;51.460;7.158;2022-08-19T06:46:24;12.03;;;9.60;;
13568;SDS011;6856;51.460;7.158;2022-08-19T06:48:59;10.80;;;9.70;;
13568;SDS011;6856;51.460;7.158;2022-08-19T06:51:33;11.18;;;10.10;;
13568;SDS011;6856;51.460;7.158;2022-08-19T06:54:15;11.27;;;9.50;;
13568;SDS011;6856;51.460;7.158;2022-08-19T06:56:52;10.33;;;9.33;;
13568;SDS011;6856;51.460;7.158;2022-08-19T06:59:26;10.77;;;9.37;;
13568;SDS011;6856;51.460;7.158;2022-08-19T07:02:00;9.77;;;8.83;;
13568;SDS011;6856;51.460;7.158;2022-08-19T07:04:38;10.03;;;9.07;;
13568;SDS011;6856;51.460;7.158;2022-08-19T07:07:13;10.68;;;9.57;;
13568;SDS011;6856;51.460;7.158;2022-08-19T07:09:51;11.83;;;10.63;;
13568;SDS011;6856;51.460;7.158;2022-08-19T07:12:32;9.50;;;8.47;;
13568;SDS011;6856;51.460;7.158;2022-08-19T07:15:09;9.73;;;8.73;;
13568;SDS011;6856;51.460;7.158;2022-08-19T07:17:44;11.67;;;10.47;;
13568;SDS011;6856;51.460;7.158;2022-08-19T07:20:23;11.13;;;9.97;;
13568;SDS011;6856;51.460;7.158;2022-08-19T07:22:59;10.55;;;9.45;;
13568;SDS011;6856;51.460;7.158;2022-08-19T07:25:37;11.10;;;9.97;;
13568;SDS011;6856;51.460;7.158;2022-08-19T07:28:13;11.67;;;10.37;;
13568;SDS011;6856;51.460;7.158;2022-08-19T07:31:00;10.55;;;9.50;;
13568;SDS011;6856;51.460;7.158;2022-08-19T07:33:36;11.68;;;10.52;;
13568;SDS011;6856;51.460;7.158;2022-08-19T07:36:11;10.05;;;8.70;;
13568;SDS011;6856;51.460;7.158;2022-08-19T07:38:49;10.50;;;9.45;;
13568;SDS011;6856;51.460;7.158;2022-08-19T07:41:28;10.80;;;9.73;;
13568;SDS011;6856;51.460;7.158;2022-08-19T07:44:04;11.35;;;9.45;;
13568;SDS011;6856;51.460;7.158;2022-08-19T07:46:41;10.00;;;9.00;;
13568;SDS011;6856;51.460;7.158;2022-08-19T07:49:21;11.48;;;9.07;;
13568;SDS011;6856;51.460;7.158;2022-08-19T07:51:56;12.02;;;8.50;;
13568;SDS011;6856;51.460;7.158;2022-08-19T07:54:35;10.70;;;9.60;;
13568;SDS011;6856;51.460;7.158;2022-08-19T07:57:11;10.70;;;9.70;;
13568;SDS011;6856;51.460;7.158;2022-08-19T07:59:47;12.70;;;11.45;;
13568;SDS011;6856;51.460;7.158;2022-08-19T08:02:21;12.40;;;11.07;;
13568;SDS011;6856;51.460;7.158;2022-08-19T08:04:54;11.25;;;10.05;;
13568;SDS011;6856;51.460;7.158;2022-08-19T08:07:48;11.77;;;10.50;;
13568;SDS011;6856;51.460;7.158;2022-08-19T08:10:39;11.63;;;10.43;;
13568;SDS011;6856;51.460;7.158;2022-08-19T08:13:22;12.32;;;10.30;;
13568;SDS011;6856;51.460;7.158;2022-08-19T08:15:58;13.30;;;11.90;;
13568;SDS011;6856;51.460;7.158;2022-08-19T08:18:31;13.20;;;11.27;;
13568;SDS011;6856;51.460;7.158;2022-08-19T08:21:12;12.25;;;10.93;;
13568;SDS011;6856;51.460;7.158;2022-08-19T08:23:46;13.40;;;11.90;;
13568;SDS011;6856;51.460;7.158;2022-08-19T08:26:22;14.32;;;12.77;;
13568;SDS011;6856;51.460;7.158;2022-08-19T08:28:58;15.80;;;13.18;;
13568;SDS011;6856;51.460;7.158;2022-08-19T08:31:43;13.75;;;12.35;;
13568;SDS011;6856;51.460;7.158;2022-08-19T08:34:19;14.52;;;12.52;;
13568;SDS011;6856;51.460;7.158;2022-08-19T08:36:53;14.82;;;13.40;;
13568;SDS011;6856;51.460;7.158;2022-08-19T08:39:27;15.25;;;13.65;;
13568;SDS011;6856;51.460;7.158;2022-08-19T08:42:07;14.98;;;13.43;;
13568;SDS011;6856;51.460;7.158;2022-08-19T08:44:49;15.38;;;13.77;;
13568;SDS011;6856;51.460;7.158;2022-08-19T08:47:32;17.25;;;15.55;;
13568;SDS011;6856;51.460;7.158;2022-08-19T08:50:13;16.08;;;14.52;;
13568;SDS011;6856;51.460;7.158;2022-08-19T08:52:52;16.88;;;14.82;;
13568;SDS011;6856;51.460;7.158;2022-08-19T08:55:29;18.27;;;16.50;;
13568;SDS011;6856;51.460;7.158;2022-08-19T08:58:09;17.52;;;15.77;;
13568;SDS011;6856;51.460;7.158;2022-08-19T09:00:49;17.35;;;15.73;;
13568;SDS011;6856;51.460;7.158;2022-08-19T09:03:25;16.70;;;15.00;;
13568;SDS011;6856;51.460;7.158;2022-08-19T09:06:02;16.63;;;14.93;;
13568;SDS011;6856;51.460;7.158;2022-08-19T09:08:45;17.40;;;15.60;;
13568;SDS011;6856;51.460;7.158;2022-08-19T09:11:46;15.65;;;14.18;;
13568;SDS011;6856;51.460;7.158;2022-08-19T09:14:37;14.27;;;13.00;;
13568;SDS011;6856;51.460;7.158;2022-08-19T09:17:23;16.25;;;14.65;;
13568;SDS011;6856;51.460;7.158;2022-08-19T09:20:05;16.70;;;14.98;;
13568;SDS011;6856;51.460;7.158;2022-08-19T09:22:48;15.32;;;13.82;;
13568;SDS011;6856;51.460;7.158;2022-08-19T09:25:22;14.85;;;13.45;;
13568;SDS011;6856;51.460;7.158;2022-08-19T09:28:00;19.83;;;16.33;;
13568;SDS011;6856;51.460;7.158;2022-08-19T09:30:52;19.95;;;17.85;;
13568;SDS011;6856;51.460;7.158;2022-08-19T09:33:26;16.75;;;15.15;;
13568;SDS011;6856;51.460;7.158;2022-08-19T09:36:04;16.88;;;15.32;;
13568;SDS011;6856;51.460;7.158;2022-08-19T09:38:40;15.63;;;13.32;;
13568;SDS011;6856;51.460;7.158;2022-08-19T09:41:15;15.88;;;14.38;;
13568;SDS011;6856;51.460;7.158;2022-08-19T09:43:53;14.88;;;13.45;;
13568;SDS011;6856;51.460;7.158;2022-08-19T09:46:29;13.18;;;12.02;;
13568;SDS011;6856;51.460;7.158;2022-08-19T09:49:03;13.95;;;12.68;;
13568;SDS011;6856;51.460;7.158;2022-08-19T09:51:38;14.13;;;12.82;;
13568;SDS011;6856;51.460;7.158;2022-08-19T09:54:14;13.30;;;12.15;;
13568;SDS011;6856;51.460;7.158;2022-08-19T09:56:54;12.63;;;11.32;;
13568;SDS011;6856;51.460;7.158;2022-08-19T09:59:35;11.07;;;10.00;;
13568;SDS011;6856;51.460;7.158;2022-08-19T10:02:08;11.73;;;10.52;;
13568;SDS011;6856;51.460;7.158;2022-08-19T10:04:43;10.75;;;9.70;;
13568;SDS011;6856;51.460;7.158;2022-08-19T10:07:35;9.18;;;8.27;;
13568;SDS011;6856;51.460;7.158;2022-08-19T10:10:14;9.68;;;8.77;;
13568;SDS011;6856;51.460;7.158;2022-08-19T10:12:50;8.77;;;7.75;;
13568;SDS011;6856;51.460;7.158;2022-08-19T10:15:26;8.23;;;7.03;;
13568;SDS011;6856;51.460;7.158;2022-08-19T10:18:18;7.68;;;6.85;;
13568;SDS011;6856;51.460;7.158;2022-08-19T10:21:02;8.05;;;7.25;;
13568;SDS011;6856;51.460;7.158;2022-08-19T10:23:44;8.63;;;7.10;;
13568;SDS011;6856;51.460;7.158;2022-08-19T10:26:23;9.90;;;8.65;;
13568;SDS011;6856;51.460;7.158;2022-08-19T10:28:59;9.30;;;8.40;;
13568;SDS011;6856;51.460;7.158;2022-08-19T10:31:36;9.90;;;8.45;;
13568;SDS011;6856;51.460;7.158;2022-08-19T10:34:31;8.35;;;7.55;;
13568;SDS011;6856;51.460;7.158;2022-08-19T10:37:05;9.40;;;8.50;;
13568;SDS011;6856;51.460;7.158;2022-08-19T10:39:46;11.15;;;8.45;;
13568;SDS011;6856;51.460;7.158;2022-08-19T10:42:20;9.10;;;8.30;;
13568;SDS011;6856;51.460;7.158;2022-08-19T10:44:53;8.20;;;7.40;;
13568;SDS011;6856;51.460;7.158;2022-08-19T10:47:28;9.07;;;8.27;;
13568;SDS011;6856;51.460;7.158;2022-08-19T10:50:05;8.63;;;7.80;;
13568;SDS011;6856;51.460;7.158;2022-08-19T10:53:02;9.68;;;8.77;;
13568;SDS011;6856;51.460;7.158;2022-08-19T10:55:41;9.82;;;8.98;;
13568;SDS011;6856;51.460;7.158;2022-08-19T10:58:41;9.38;;;8.38;;
13568;SDS011;6856;51.460;7.158;2022-08-19T11:01:16;10.00;;;9.10;;
13568;SDS011;6856;51.460;7.158;2022-08-19T11:03:50;10.40;;;9.43;;
13568;SDS011;6856;51.460;7.158;2022-08-19T11:06:23;10.30;;;9.40;;
13568;SDS011;6856;51.460;7.158;2022-08-19T11:09:00;10.18;;;9.18;;
13568;SDS011;6856;51.460;7.158;2022-08-19T11:11:35;9.23;;;8.38;;
13568;SDS011;6856;51.460;7.158;2022-08-19T11:14:13;11.43;;;9.75;;
13568;SDS011;6856;51.460;7.158;2022-08-19T11:16:51;10.75;;;9.65;;
13568;SDS011;6856;51.460;7.158;2022-08-19T11:19:27;8.27;;;7.50;;
13568;SDS011;6856;51.460;7.158;2022-08-19T11:22:01;8.20;;;7.40;;
13568;SDS011;6856;51.460;7.158;2022-08-19T11:24:35;9.25;;;8.35;;
13568;SDS011;6856;51.460;7.158;2022-08-19T11:27:10;8.18;;;7.47;;
13568;SDS011;6856;51.460;7.158;2022-08-19T11:29:45;9.68;;;8.68;;
13568;SDS011;6856;51.460;7.158;2022-08-19T11:32:19;9.10;;;8.23;;
13568;SDS011;6856;51.460;7.158;2022-08-19T11:34:53;10.13;;;9.13;;
13568;SDS011;6856;51.460;7.158;2022-08-19T11:37:26;10.20;;;9.20;;
13568;SDS011;6856;51.460;7.158;2022-08-19T11:40:00;10.18;;;9.23;;
13568;SDS011;6856;51.460;7.158;2022-08-19T11:42:35;10.55;;;9.50;;
13568;SDS011;6856;51.460;7.158;2022-08-19T11:45:22;9.40;;;7.82;;
13568;SDS011;6856;51.460;7.158;2022-08-19T11:47:57;9.32;;;8.43;;
13568;SDS011;6856;51.460;7.158;2022-08-19T11:50:30;7.63;;;6.93;;
13568;SDS011;6856;51.460;7.158;2022-08-19T11:53:04;7.75;;;6.85;;
13568;SDS011;6856;51.460;7.158;2022-08-19T11:55:40;8.23;;;6.70;;
13568;SDS011;6856;51.460;7.158;2022-08-19T11:58:22;8.02;;;7.32;;
13568;SDS011;6856;51.460;7.158;2022-08-19T12:00:57;6.75;;;6.15;;
13568;SDS011;6856;51.460;7.158;2022-08-19T12:03:31;6.65;;;5.97;;
13568;SDS011;6856;51.460;7.158;2022-08-19T12:06:05;5.97;;;5.38;;
13568;SDS011;6856;51.460;7.158;2022-08-19T12:08:41;7.38;;;6.68;;
13568;SDS011;6856;51.460;7.158;2022-08-19T12:11:16;7.07;;;6.40;;
13568;SDS011;6856;51.460;7.158;2022-08-19T12:13:52;6.35;;;5.47;;
13568;SDS011;6856;51.460;7.158;2022-08-19T12:16:26;6.32;;;5.72;;
13568;SDS011;6856;51.460;7.158;2022-08-19T12:19:03;6.65;;;5.90;;
13568;SDS011;6856;51.460;7.158;2022-08-19T12:21:38;7.00;;;6.40;;
13568;SDS011;6856;51.460;7.158;2022-08-19T12:24:11;6.95;;;6.25;;
13568;SDS011;6856;51.460;7.158;2022-08-19T12:26:44;5.72;;;5.22;;
13568;SDS011;6856;51.460;7.158;2022-08-19T12:29:25;5.93;;;5.28;;
13568;SDS011;6856;51.460;7.158;2022-08-19T12:31:59;6.28;;;5.05;;
13568;SDS011;6856;51.460;7.158;2022-08-19T12:34:34;6.28;;;4.75;;
13568;SDS011;6856;51.460;7.158;2022-08-19T12:37:09;6.85;;;4.78;;
13568;SDS011;6856;51.460;7.158;2022-08-19T12:39:43;5.70;;;5.10;;
13568;SDS011;6856;51.460;7.158;2022-08-19T12:42:20;5.15;;;4.57;;
13568;SDS011;6856;51.460;7.158;2022-08-19T12:44:56;6.28;;;4.80;;
13568;SDS011;6856;51.460;7.158;2022-08-19T12:47:29;4.35;;;3.95;;
13568;SDS011;6856;51.460;7.158;2022-08-19T12:50:03;6.65;;;4.55;;
13568;SDS011;6856;51.460;7.158;2022-08-19T12:52:39;4.45;;;3.83;;
13568;SDS011;6856;51.460;7.158;2022-08-19T12:55:14;4.43;;;3.75;;
13568;SDS011;6856;51.460;7.158;2022-08-19T12:57:50;4.88;;;4.20;;
13568;SDS011;6856;51.460;7.158;2022-08-19T13:00:27;4.60;;;3.95;;
13568;SDS011;6856;51.460;7.158;2022-08-19T13:03:04;6.30;;;3.80;;
13568;SDS011;6856;51.460;7.158;2022-08-19T13:05:37;4.63;;;3.90;;
13568;SDS011;6856;51.460;7.158;2022-08-19T13:08:12;5.10;;;4.60;;
13568;SDS011;6856;51.460;7.158;2022-08-19T13:10:45;4.32;;;3.38;;
13568;SDS011;6856;51.460;7.158;2022-08-19T13:13:19;4.20;;;3.63;;
13568;SDS011;6856;51.460;7.158;2022-08-19T13:15:59;4.40;;;4.00;;
13568;SDS011;6856;51.460;7.158;2022-08-19T13:18:34;4.05;;;3.53;;
13568;SDS011;6856;51.460;7.158;2022-08-19T13:21:09;3.90;;;3.50;;
13568;SDS011;6856;51.460;7.158;2022-08-19T13:23:46;5.00;;;3.97;;
13568;SDS011;6856;51.460;7.158;2022-08-19T13:26:20;5.13;;;3.78;;
13568;SDS011;6856;51.460;7.158;2022-08-19T13:28:54;5.20;;;4.30;;
13568;SDS011;6856;51.460;7.158;2022-08-19T13:31:46;4.10;;;3.60;;
13568;SDS011;6856;51.460;7.158;2022-08-19T13:34:37;4.45;;;4.03;;
13568;SDS011;6856;51.460;7.158;2022-08-19T13:37:11;3.58;;;3.28;;
13568;SDS011;6856;51.460;7.158;2022-08-19T13:39:45;3.95;;;3.55;;
13568;SDS011;6856;51.460;7.158;2022-08-19T13:42:19;4.30;;;3.45;;
13568;SDS011;6856;51.460;7.158;2022-08-19T13:44:57;3.50;;;3.20;;
13568;SDS011;6856;51.460;7.158;2022-08-19T13:47:32;4.60;;;3.35;;
13568;SDS011;6856;51.460;7.158;2022-08-19T13:50:08;3.78;;;3.38;;
13568;SDS011;6856;51.460;7.158;2022-08-19T13:52:43;4.40;;;3.22;;
13568;SDS011;6856;51.460;7.158;2022-08-19T13:55:17;3.10;;;2.80;;
13568;SDS011;6856;51.460;7.158;2022-08-19T13:57:56;4.30;;;3.35;;
13568;SDS011;6856;51.460;7.158;2022-08-19T14:00:36;5.05;;;3.58;;
13568;SDS011;6856;51.460;7.158;2022-08-19T14:03:14;3.88;;;3.05;;
13568;SDS011;6856;51.460;7.158;2022-08-19T14:05:49;3.70;;;3.33;;
13568;SDS011;6856;51.460;7.158;2022-08-19T14:08:27;4.07;;;3.65;;
13568;SDS011;6856;51.460;7.158;2022-08-19T14:11:03;3.67;;;3.08;;
13568;SDS011;6856;51.460;7.158;2022-08-19T14:13:37;4.50;;;2.92;;
13568;SDS011;6856;51.460;7.158;2022-08-19T14:16:11;3.78;;;3.00;;
13568;SDS011;6856;51.460;7.158;2022-08-19T14:18:48;3.70;;;2.80;;
13568;SDS011;6856;51.460;7.158;2022-08-19T14:21:22;3.17;;;2.45;;
13568;SDS011;6856;51.460;7.158;2022-08-19T14:23:57;4.53;;;2.92;;
13568;SDS011;6856;51.460;7.158;2022-08-19T14:26:30;4.53;;;2.97;;
13568;SDS011;6856;51.460;7.158;2022-08-19T14:29:05;4.45;;;3.40;;
13568;SDS011;6856;51.460;7.158;2022-08-19T14:31:39;3.33;;;3.03;;
13568;SDS011;6856;51.460;7.158;2022-08-19T14:34:15;4.10;;;3.00;;
13568;SDS011;6856;51.460;7.158;2022-08-19T14:36:49;4.03;;;2.90;;
13568;SDS011;6856;51.460;7.158;2022-08-19T14:39:24;5.28;;;3.33;;
13568;SDS011;6856;51.460;7.158;2022-08-19T14:41:57;4.50;;;3.20;;
13568;SDS011;6856;51.460;7.158;2022-08-19T14:44:31;4.05;;;3.25;;
13568;SDS011;6856;51.460;7.158;2022-08-19T14:47:05;6.65;;;3.67;;
13568;SDS011;6856;51.460;7.158;2022-08-19T14:49:41;6.10;;;3.50;;
13568;SDS011;6856;51.460;7.158;2022-08-19T14:52:18;4.18;;;3.50;;
13568;SDS011;6856;51.460;7.158;2022-08-19T14:54:52;4.28;;;2.88;;
13568;SDS011;6856;51.460;7.158;2022-08-19T14:57:26;4.50;;;3.55;;
13568;SDS011;6856;51.460;7.158;2022-08-19T14:59:59;4.22;;;3.33;;
13568;SDS011;6856;51.460;7.158;2022-08-19T15:02:33;3.55;;;3.20;;
13568;SDS011;6856;51.460;7.158;2022-08-19T15:05:08;3.65;;;3.10;;
13568;SDS011;6856;51.460;7.158;2022-08-19T15:07:42;4.88;;;3.35;;
13568;SDS011;6856;51.460;7.158;2022-08-19T15:10:16;5.45;;;3.45;;
13568;SDS011;6856;51.460;7.158;2022-08-19T15:12:50;5.38;;;3.35;;
13568;SDS011;6856;51.460;7.158;2022-08-19T15:15:26;4.65;;;3.20;;
13568;SDS011;6856;51.460;7.158;2022-08-19T15:17:59;4.22;;;3.33;;
13568;SDS011;6856;51.460;7.158;2022-08-19T15:20:35;4.00;;;3.30;;
13568;SDS011;6856;51.460;7.158;2022-08-19T15:23:12;4.38;;;3.08;;
13568;SDS011;6856;51.460;7.158;2022-08-19T15:25:46;4.00;;;3.60;;
13568;SDS011;6856;51.460;7.158;2022-08-19T15:28:27;3.95;;;3.45;;
13568;SDS011;6856;51.460;7.158;2022-08-19T15:31:01;4.22;;;3.40;;
13568;SDS011;6856;51.460;7.158;2022-08-19T15:33:36;5.00;;;3.45;;
13568;SDS011;6856;51.460;7.158;2022-08-19T15:36:13;4.30;;;3.80;;
13568;SDS011;6856;51.460;7.158;2022-08-19T15:38:49;4.38;;;3.97;;
13568;SDS011;6856;51.460;7.158;2022-08-19T15:41:27;4.38;;;3.55;;
13568;SDS011;6856;51.460;7.158;2022-08-19T15:44:03;5.78;;;4.68;;
13568;SDS011;6856;51.460;7.158;2022-08-19T15:46:47;4.70;;;3.97;;
13568;SDS011;6856;51.460;7.158;2022-08-19T15:49:21;4.47;;;4.07;;
13568;SDS011;6856;51.460;7.158;2022-08-19T15:51:55;4.30;;;3.80;;
13568;SDS011;6856;51.460;7.158;2022-08-19T15:54:30;6.03;;;3.78;;
13568;SDS011;6856;51.460;7.158;2022-08-19T15:57:04;4.90;;;4.15;;
13568;SDS011;6856;51.460;7.158;2022-08-19T16:00:09;5.65;;;4.53;;
13568;SDS011;6856;51.460;7.158;2022-08-19T16:03:01;3.75;;;3.45;;
13568;SDS011;6856;51.460;7.158;2022-08-19T16:05:52;4.70;;;3.38;;
13568;SDS011;6856;51.460;7.158;2022-08-19T16:08:45;5.05;;;3.67;;
13568;SDS011;6856;51.460;7.158;2022-08-19T16:11:21;7.97;;;4.10;;
13568;SDS011;6856;51.460;7.158;2022-08-19T16:14:00;3.90;;;3.45;;
13568;SDS011;6856;51.460;7.158;2022-08-19T16:16:34;4.10;;;3.35;;
13568;SDS011;6856;51.460;7.158;2022-08-19T16:19:09;3.55;;;3.10;;
13568;SDS011;6856;51.460;7.158;2022-08-19T16:21:46;5.05;;;3.47;;
13568;SDS011;6856;51.460;7.158;2022-08-19T16:24:25;4.03;;;3.20;;
13568;SDS011;6856;51.460;7.158;2022-08-19T16:26:59;5.38;;;3.30;;
13568;SDS011;6856;51.460;7.158;2022-08-19T16:29:33;4.00;;;3.28;;
13568;SDS011;6856;51.460;7.158;2022-08-19T16:32:09;4.32;;;3.22;;
13568;SDS011;6856;51.460;7.158;2022-08-19T16:34:45;4.18;;;3.28;;
13568;SDS011;6856;51.460;7.158;2022-08-19T16:37:19;5.22;;;3.03;;
13568;SDS011;6856;51.460;7.158;2022-08-19T16:39:55;3.63;;;3.15;;
13568;SDS011;6856;51.460;7.158;2022-08-19T16:42:28;6.30;;;3.72;;
13568;SDS011;6856;51.460;7.158;2022-08-19T16:45:02;4.30;;;3.50;;
13568;SDS011;6856;51.460;7.158;2022-08-19T16:47:39;5.53;;;3.85;;
13568;SDS011;6856;51.460;7.158;2022-08-19T16:50:12;3.25;;;2.95;;
13568;SDS011;6856;51.460;7.158;2022-08-19T16:52:55;4.95;;;3.47;;
13568;SDS011;6856;51.460;7.158;2022-08-19T16:55:30;4.13;;;3.55;;
13568;SDS011;6856;51.460;7.158;2022-08-19T16:58:04;3.97;;;3.50;;
13568;SDS011;6856;51.460;7.158;2022-08-19T17:00:37;5.18;;;3.90;;
13568;SDS011;6856;51.460;7.158;2022-08-19T17:03:11;4.40;;;3.45;;
13568;SDS011;6856;51.460;7.158;2022-08-19T17:05:46;3.70;;;3.15;;
13568;SDS011;6856;51.460;7.158;2022-08-19T17:08:24;5.93;;;4.18;;
13568;SDS011;6856;51.460;7.158;2022-08-19T17:11:00;4.63;;;3.58;;
13568;SDS011;6856;51.460;7.158;2022-08-19T17:13:49;4.53;;;3.70;;
13568;SDS011;6856;51.460;7.158;2022-08-19T17:16:25;4.03;;;3.33;;
13568;SDS011;6856;51.460;7.158;2022-08-19T17:19:03;4.50;;;3.90;;
13568;SDS011;6856;51.460;7.158;2022-08-19T17:21:39;5.43;;;3.90;;
13568;SDS011;6856;51.460;7.158;2022-08-19T17:24:12;4.88;;;3.40;;
13568;SDS011;6856;51.460;7.158;2022-08-19T17:26:48;5.57;;;4.90;;
13568;SDS011;6856;51.460;7.158;2022-08-19T17:29:22;5.88;;;4.68;;
13568;SDS011;6856;51.460;7.158;2022-08-19T17:31:56;6.68;;;4.70;;
13568;SDS011;6856;51.460;7.158;2022-08-19T17:34:29;5.10;;;4.40;;
13568;SDS011;6856;51.460;7.158;2022-08-19T17:37:04;5.50;;;4.30;;
13568;SDS011;6856;51.460;7.158;2022-08-19T17:39:37;6.18;;;5.25;;
13568;SDS011;6856;51.460;7.158;2022-08-19T17:42:12;7.43;;;4.90;;
13568;SDS011;6856;51.460;7.158;2022-08-19T17:44:46;6.40;;;5.07;;
13568;SDS011;6856;51.460;7.158;2022-08-19T17:47:21;5.05;;;4.50;;
13568;SDS011;6856;51.460;7.158;2022-08-19T17:49:55;5.43;;;4.57;;
13568;SDS011;6856;51.460;7.158;2022-08-19T17:52:29;5.38;;;4.60;;
13568;SDS011;6856;51.460;7.158;2022-08-19T17:55:04;6.00;;;4.95;;
13568;SDS011;6856;51.460;7.158;2022-08-19T17:57:44;6.07;;;5.35;;
13568;SDS011;6856;51.460;7.158;2022-08-19T18:00:18;6.70;;;6.03;;
13568;SDS011;6856;51.460;7.158;2022-08-19T18:02:57;5.40;;;4.90;;
13568;SDS011;6856;51.460;7.158;2022-08-19T18:05:34;6.75;;;5.55;;
13568;SDS011;6856;51.460;7.158;2022-08-19T18:08:14;6.55;;;5.90;;
13568;SDS011;6856;51.460;7.158;2022-08-19T18:10:47;6.55;;;5.95;;
13568;SDS011;6856;51.460;7.158;2022-08-19T18:13:22;6.10;;;5.50;;
13568;SDS011;6856;51.460;7.158;2022-08-19T18:15:56;6.78;;;5.55;;
13568;SDS011;6856;51.460;7.158;2022-08-19T18:18:30;7.10;;;6.22;;
13568;SDS011;6856;51.460;7.158;2022-08-19T18:21:05;6.20;;;5.55;;
13568;SDS011;6856;51.460;7.158;2022-08-19T18:23:39;8.00;;;6.35;;
13568;SDS011;6856;51.460;7.158;2022-08-19T18:26:16;7.00;;;6.30;;
13568;SDS011;6856;51.460;7.158;2022-08-19T18:28:52;7.68;;;6.38;;
13568;SDS011;6856;51.460;7.158;2022-08-19T18:31:25;6.53;;;5.90;;
13568;SDS011;6856;51.460;7.158;2022-08-19T18:33:59;7.13;;;6.30;;
13568;SDS011;6856;51.460;7.158;2022-08-19T18:36:33;5.43;;;4.90;;
13568;SDS011;6856;51.460;7.158;2022-08-19T18:39:24;5.20;;;4.38;;
13568;SDS011;6856;51.460;7.158;2022-08-19T18:42:15;6.68;;;5.25;;
13568;SDS011;6856;51.460;7.158;2022-08-19T18:45:09;6.68;;;4.70;;
13568;SDS011;6856;51.460;7.158;2022-08-19T18:48:03;6.22;;;4.20;;
13568;SDS011;6856;51.460;7.158;2022-08-19T18:50:58;5.43;;;4.22;;
13568;SDS011;6856;51.460;7.158;2022-08-19T18:53:34;4.63;;;4.05;;
13568;SDS011;6856;51.460;7.158;2022-08-19T18:56:12;6.00;;;4.55;;
13568;SDS011;6856;51.460;7.158;2022-08-19T18:58:49;6.25;;;4.47;;
13568;SDS011;6856;51.460;7.158;2022-08-19T19:01:26;6.20;;;4.38;;
13568;SDS011;6856;51.460;7.158;2022-08-19T19:04:04;4.47;;;3.70;;
13568;SDS011;6856;51.460;7.158;2022-08-19T19:06:41;4.63;;;4.03;;
13568;SDS011;6856;51.460;7.158;2022-08-19T19:09:17;5.53;;;3.85;;
13568;SDS011;6856;51.460;7.158;2022-08-19T19:11:54;7.03;;;4.88;;
13568;SDS011;6856;51.460;7.158;2022-08-19T19:14:32;8.23;;;5.13;;
13568;SDS011;6856;51.460;7.158;2022-08-19T19:17:21;6.13;;;5.20;;
13568;SDS011;6856;51.460;7.158;2022-08-19T19:19:57;5.75;;;5.15;;
13568;SDS011;6856;51.460;7.158;2022-08-19T19:22:31;7.10;;;5.68;;
13568;SDS011;6856;51.460;7.158;2022-08-19T19:25:04;6.53;;;5.28;;
13568;SDS011;6856;51.460;7.158;2022-08-19T19:27:40;8.30;;;6.00;;
13568;SDS011;6856;51.460;7.158;2022-08-19T19:30:14;7.28;;;6.25;;
13568;SDS011;6856;51.460;7.158;2022-08-19T19:32:49;9.48;;;6.10;;
13568;SDS011;6856;51.460;7.158;2022-08-19T19:35:26;6.97;;;5.90;;
13568;SDS011;6856;51.460;7.158;2022-08-19T19:38:01;5.97;;;5.38;;
13568;SDS011;6856;51.460;7.158;2022-08-19T19:40:35;6.20;;;5.40;;
13568;SDS011;6856;51.460;7.158;2022-08-19T19:43:09;7.15;;;6.05;;